MMGL METAR and TAF | Updated Today

MMGL METAR

Don Miguel Hidalgo Y Costilla International Airport

Observation time: 14 min. ago

MMGL 070851Z 00000KT 10SM SKC 09/06 A3022 RMK SLP139 52006 956

Need help? Read our tutorial on how to read METARs or read the parsed version below.

Don Miguel Hidalgo Y Costilla International Airport (MMGL) METAR

  • Weather conditions on Tue, 07 Dec 2021 08:51:00 +0000 (14 min. ago):
  • Present conditions: Dry
  • Clouds: No significant changes expected
  • Visibility: 16093 meters
  • Wind: Calm
  • Temperature: 9 celsius
  • Dew point: 6 celsius
  • Pressure: 30.22 inHg
  • Remarks: SLP139 52006 956


Useful to know...

MMGL TAF

Don Miguel Hidalgo Y Costilla International Airport

TAF MMGL 070443Z 0706/0812 00000KT 6SM HZ BKN300 TX26/0721Z TN07/0712Z FM071800 23012KT P6SM BKN300 FM080300 24005KT P6SM SCT300
Observation time: 4:22 hr. ago
Need help? Read our tutorial on how to read TAFs or read the parsed version below.

Parsed version of TAF for Don Miguel Hidalgo Y Costilla International Airport (MMGL)

  • From 07 December at 06:00 UTC, to day 08 of the month at 12:00 UTC
  • Clouds: Broken sky at 9144 meters
  • Visibility: 9656 meters
  • Other: Haze
  • From day 7 of the month at 18:00 UTC
  • Clouds: Broken sky at 9144 meters
  • Wind: 230 degrees at 12
  • From day 8 of the month at 03:00 UTC
  • Clouds: Scattered at 9144 meters
  • Wind: 240 degrees at 5

Airports near MMGL